createdAt,value
2016-09-28T00:00:12.718Z,172
2016-09-28T00:01:13.231Z,172
2016-09-28T00:02:13.747Z,172
2016-09-28T00:03:14.250Z,172
2016-09-28T00:04:14.770Z,172
2016-09-28T00:05:15.276Z,200
2016-09-28T00:06:15.800Z,200
2016-09-28T00:07:16.451Z,200
2016-09-28T00:08:16.816Z,200
2016-09-28T00:09:17.473Z,200
2016-09-28T00:10:18.289Z,200
2016-09-28T00:11:18.346Z,200
2016-09-28T00:12:18.855Z,200
2016-09-28T00:13:21.033Z,200
2016-09-28T00:14:19.883Z,200
2016-09-28T00:15:20.396Z,152
2016-09-28T00:16:20.907Z,152
2016-09-28T00:17:21.432Z,152
2016-09-28T00:18:21.937Z,152
2016-09-28T00:19:22.467Z,152
2016-09-28T00:20:22.967Z,152
2016-09-28T00:21:23.506Z,152
2016-09-28T00:22:24.004Z,152
2016-09-28T00:23:24.530Z,152
2016-09-28T00:24:25.056Z,152
2016-09-28T00:25:25.691Z,142
2016-09-28T00:26:26.055Z,142
2016-09-28T00:27:26.572Z,142
2016-09-28T00:28:27.075Z,142
2016-09-28T00:29:27.586Z,142
2016-09-28T00:30:28.097Z,142
2016-09-28T00:31:28.619Z,142
2016-09-28T00:32:29.126Z,142
2016-09-28T00:33:29.639Z,142
2016-09-28T00:34:30.149Z,142
2016-09-28T00:35:30.810Z,135
2016-09-28T00:36:31.171Z,135
2016-09-28T00:37:31.686Z,135
2016-09-28T00:38:32.233Z,135
2016-09-28T00:39:32.703Z,135
2016-09-28T00:40:33.213Z,135
2016-09-28T00:41:33.724Z,135
2016-09-28T00:42:34.242Z,135
2016-09-28T00:43:34.749Z,135
2016-09-28T00:44:35.409Z,135
2016-09-28T00:45:35.924Z,146
2016-09-28T00:46:36.285Z,146
2016-09-28T00:47:36.797Z,146
2016-09-28T00:48:37.310Z,146
2016-09-28T00:49:37.821Z,146
2016-09-28T00:50:38.335Z,146
2016-09-28T00:51:38.994Z,146
2016-09-28T00:52:39.356Z,146
2016-09-28T00:53:40.022Z,146
2016-09-28T00:54:40.388Z,146
2016-09-28T00:55:40.898Z,172
2016-09-28T00:56:41.420Z,172
2016-09-28T00:57:41.944Z,172
2016-09-28T00:58:42.438Z,172
2016-09-28T00:59:42.952Z,172
2016-09-28T01:00:44.973Z,172
2016-09-28T01:01:43.989Z,172
2016-09-28T01:02:44.487Z,172
2016-09-28T01:03:45.155Z,172
2016-09-28T01:04:45.511Z,172
2016-09-28T01:05:46.024Z,152
2016-09-28T01:06:46.535Z,152
2016-09-28T01:07:47.074Z,152
2016-09-28T01:08:47.554Z,152
2016-09-28T01:09:48.070Z,152
2016-09-28T01:10:48.742Z,152
2016-09-28T01:11:49.095Z,152
2016-09-28T01:12:49.604Z,152
2016-09-28T01:13:50.119Z,152
2016-09-28T01:14:50.637Z,152
2016-09-28T01:15:51.144Z,182
2016-09-28T01:16:51.657Z,182
2016-09-28T01:17:52.348Z,182
2016-09-28T01:18:52.698Z,182
2016-09-28T01:19:53.194Z,182
2016-09-28T01:20:53.706Z,182
2016-09-28T01:21:54.216Z,182
2016-09-28T01:22:54.724Z,182
2016-09-28T01:23:55.232Z,182
2016-09-28T01:24:55.758Z,182
2016-09-28T01:25:56.256Z,125
2016-09-28T01:26:56.765Z,125
2016-09-28T01:27:57.428Z,125
2016-09-28T01:28:57.791Z,125
2016-09-28T01:29:58.302Z,125
2016-09-28T01:31:00.632Z,125
2016-09-28T01:31:59.464Z,125
2016-09-28T01:32:59.977Z,125
2016-09-28T01:34:00.367Z,125
2016-09-28T01:35:00.856Z,67
2016-09-28T01:36:01.374Z,67
2016-09-28T01:37:02.046Z,67
2016-09-28T01:38:02.421Z,67
2016-09-28T01:39:02.929Z,67
2016-09-28T01:40:03.445Z,67
2016-09-28T01:41:03.955Z,67
2016-09-28T01:42:04.466Z,67
2016-09-28T01:43:05.129Z,67
2016-09-28T01:44:05.637Z,67
2016-09-28T01:45:06.001Z,164
2016-09-28T01:46:06.508Z,164
2016-09-28T01:47:07.043Z,164
2016-09-28T01:48:07.686Z,164
2016-09-28T01:49:08.044Z,164
2016-09-28T01:50:08.551Z,164
2016-09-28T01:51:09.065Z,164
2016-09-28T01:52:09.732Z,164
2016-09-28T01:53:10.102Z,164
2016-09-28T01:54:10.595Z,164
2016-09-28T01:55:11.112Z,236
2016-09-28T01:56:11.626Z,236
2016-09-28T01:57:12.280Z,236
2016-09-28T01:58:12.645Z,236
2016-09-28T01:59:13.156Z,236
2016-09-28T02:00:13.663Z,236
2016-09-28T02:01:14.172Z,236
2016-09-28T02:02:14.692Z,236
2016-09-28T02:03:15.351Z,236
2016-09-28T02:04:15.713Z,236
2016-09-28T02:05:16.220Z,170
2016-09-28T02:06:16.886Z,170
2016-09-28T02:07:17.242Z,170
2016-09-28T02:08:17.757Z,170
2016-09-28T02:09:18.265Z,170
2016-09-28T02:10:18.778Z,170
2016-09-28T02:11:19.440Z,170
2016-09-28T02:12:19.958Z,170
2016-09-28T02:13:20.322Z,170
2016-09-28T02:14:20.834Z,170
2016-09-28T02:15:21.346Z,180
2016-09-28T02:16:21.875Z,180
2016-09-28T02:17:22.379Z,180
2016-09-28T02:18:22.887Z,180
2016-09-28T02:19:23.400Z,180
2016-09-28T02:20:23.910Z,180
2016-09-28T02:21:24.581Z,180
2016-09-28T02:22:24.944Z,180
2016-09-28T02:23:25.476Z,180
2016-09-28T02:24:25.987Z,180
2016-09-28T02:25:26.463Z,159
2016-09-28T02:26:27.131Z,159
2016-09-28T02:27:27.497Z,159
2016-09-28T02:28:27.997Z,159
2016-09-28T02:29:28.513Z,159
2016-09-28T02:30:29.018Z,159
2016-09-28T02:31:29.533Z,159
2016-09-28T02:32:30.038Z,159
2016-09-28T02:33:30.554Z,159
2016-09-28T02:34:31.071Z,159
2016-09-28T02:35:32.480Z,154
2016-09-28T02:36:32.089Z,154
2016-09-28T02:37:32.605Z,154
2016-09-28T02:38:33.114Z,154
2016-09-28T02:39:33.632Z,154
2016-09-28T02:40:34.133Z,154
2016-09-28T02:41:34.649Z,154
2016-09-28T02:42:35.148Z,154
2016-09-28T02:43:35.665Z,154
2016-09-28T02:44:36.168Z,154
2016-09-28T02:45:36.677Z,132
2016-09-28T02:46:37.194Z,132
2016-09-28T02:47:37.704Z,132
2016-09-28T02:48:38.216Z,132
2016-09-28T02:49:38.724Z,132
2016-09-28T02:50:39.234Z,132
2016-09-28T02:51:39.756Z,132
2016-09-28T02:52:40.271Z,132
2016-09-28T02:53:40.933Z,132
2016-09-28T02:54:41.444Z,132
2016-09-28T02:55:41.816Z,151
2016-09-28T02:56:42.324Z,151
2016-09-28T02:57:42.843Z,151
2016-09-28T02:58:43.356Z,151
2016-09-28T02:59:44.024Z,151
2016-09-28T03:00:44.379Z,151
2016-09-28T03:01:44.891Z,151
2016-09-28T03:02:45.401Z,151
2016-09-28T03:03:45.915Z,151
2016-09-28T03:04:46.421Z,151
2016-09-28T03:05:47.853Z,157
2016-09-28T03:06:47.443Z,157
2016-09-28T03:07:47.957Z,157
2016-09-28T03:08:48.621Z,157
2016-09-28T03:09:48.983Z,157
2016-09-28T03:10:49.494Z,157
2016-09-28T03:11:50.003Z,157
2016-09-28T03:12:50.666Z,157
2016-09-28T03:13:51.028Z,157
2016-09-28T03:14:51.542Z,157
2016-09-28T03:15:52.076Z,164
2016-09-28T03:16:52.567Z,164
2016-09-28T03:17:53.079Z,164
2016-09-28T03:18:53.893Z,164
2016-09-28T03:19:54.104Z,164
2016-09-28T03:20:54.618Z,164
2016-09-28T03:21:55.133Z,164
2016-09-28T03:22:55.648Z,164
2016-09-28T03:23:56.163Z,164
2016-09-28T03:24:56.675Z,164
2016-09-28T03:25:57.182Z,159
2016-09-28T03:27:58.360Z,159
2016-09-28T03:28:58.724Z,159
2016-09-28T03:29:59.241Z,159
2016-09-28T03:30:59.752Z,159
2016-09-28T03:32:00.268Z,159
2016-09-28T03:33:00.779Z,159
2016-09-28T03:34:01.288Z,159
2016-09-28T03:35:01.803Z,155
2016-09-28T03:36:02.461Z,155
2016-09-28T03:37:03.126Z,155
2016-09-28T03:38:03.501Z,155
2016-09-28T03:39:03.850Z,155
2016-09-28T03:40:04.360Z,155
2016-09-28T03:41:04.872Z,155
2016-09-28T03:42:05.379Z,155
2016-09-28T03:43:06.037Z,155
2016-09-28T03:44:06.400Z,155
2016-09-28T03:45:07.068Z,166
2016-09-28T03:46:07.613Z,166
2016-09-28T03:47:07.933Z,166
2016-09-28T03:48:08.450Z,166
2016-09-28T03:49:08.973Z,166
2016-09-28T03:50:09.472Z,166
2016-09-28T03:51:09.995Z,166
2016-09-28T03:52:10.494Z,166
2016-09-28T03:53:12.802Z,166
2016-09-28T03:54:11.519Z,166
2016-09-28T03:55:12.024Z,156
2016-09-28T03:56:12.687Z,156
2016-09-28T03:57:13.047Z,156
2016-09-28T03:58:13.559Z,156
2016-09-28T03:59:14.095Z,156
2016-09-28T04:00:14.583Z,156
2016-09-28T04:01:15.099Z,156
2016-09-28T04:02:15.610Z,156
2016-09-28T04:03:16.267Z,156
2016-09-28T04:04:16.635Z,156
2016-09-28T04:05:17.157Z,137
2016-09-28T04:06:17.665Z,137
2016-09-28T04:07:18.187Z,137
2016-09-28T04:08:18.700Z,137
2016-09-28T04:09:19.214Z,137
2016-09-28T04:10:19.879Z,137
2016-09-28T04:11:21.735Z,137
2016-09-28T04:12:20.744Z,137
2016-09-28T04:13:21.256Z,137
2016-09-28T04:14:21.773Z,137
2016-09-28T04:15:22.287Z,150
2016-09-28T04:16:22.800Z,150
2016-09-28T04:17:23.320Z,150
2016-09-28T04:18:23.857Z,150
2016-09-28T04:19:24.335Z,150
2016-09-28T04:20:24.996Z,150
2016-09-28T04:21:25.356Z,150
2016-09-28T04:22:25.865Z,150
2016-09-28T04:23:26.377Z,150
2016-09-28T04:24:26.897Z,150
2016-09-28T04:25:27.406Z,152
2016-09-28T04:26:28.213Z,152
2016-09-28T04:27:28.432Z,152
2016-09-28T04:28:28.947Z,152
2016-09-28T04:29:29.452Z,152
2016-09-28T04:30:30.113Z,152
2016-09-28T04:31:30.472Z,152
2016-09-28T04:32:30.996Z,152
2016-09-28T04:33:31.494Z,152
2016-09-28T04:34:32.011Z,152
2016-09-28T04:35:32.670Z,179
2016-09-28T04:36:33.033Z,179
2016-09-28T04:37:33.552Z,179
2016-09-28T04:38:34.064Z,179
2016-09-28T04:39:34.873Z,179
2016-09-28T04:40:35.088Z,179
2016-09-28T04:41:36.652Z,179
2016-09-28T04:42:36.116Z,179
2016-09-28T04:43:36.630Z,179
2016-09-28T04:44:37.152Z,179
2016-09-28T04:45:37.809Z,175
2016-09-28T04:46:38.170Z,175
2016-09-28T04:47:38.680Z,175
2016-09-28T04:48:39.341Z,175
2016-09-28T04:49:39.702Z,175
2016-09-28T04:50:40.217Z,175
2016-09-28T04:51:40.720Z,175
2016-09-28T04:52:41.231Z,175
2016-09-28T04:53:41.740Z,175
2016-09-28T04:54:42.402Z,175
2016-09-28T04:55:42.762Z,176
2016-09-28T04:56:44.774Z,176
2016-09-28T04:57:43.936Z,176
2016-09-28T04:58:44.293Z,176
2016-09-28T04:59:44.810Z,176
2016-09-28T05:00:45.328Z,176
2016-09-28T05:01:45.831Z,176
2016-09-28T05:02:46.339Z,176
2016-09-28T05:03:46.853Z,176
2016-09-28T05:04:47.512Z,176
2016-09-28T05:05:47.879Z,161
2016-09-28T05:06:48.380Z,161
2016-09-28T05:07:48.907Z,161
2016-09-28T05:08:49.404Z,161
2016-09-28T05:09:49.916Z,161
2016-09-28T05:10:50.427Z,161
2016-09-28T05:11:50.963Z,161
2016-09-28T05:12:51.444Z,161
2016-09-28T05:13:52.105Z,161
2016-09-28T05:14:52.615Z,161
2016-09-28T05:15:52.978Z,149
2016-09-28T05:16:53.502Z,149
2016-09-28T05:17:54.022Z,149
2016-09-28T05:18:54.696Z,149
2016-09-28T05:19:55.073Z,149
2016-09-28T05:20:55.585Z,149
2016-09-28T05:21:56.103Z,149
2016-09-28T05:22:56.771Z,149
2016-09-28T05:23:57.132Z,149
2016-09-28T05:24:57.808Z,149
2016-09-28T05:25:58.178Z,188
2016-09-28T05:26:58.674Z,188
2016-09-28T05:27:59.193Z,188
2016-09-28T05:28:59.848Z,188
2016-09-28T05:30:00.207Z,188
2016-09-28T05:31:00.729Z,188
2016-09-28T05:32:01.231Z,188
2016-09-28T05:33:01.745Z,188
2016-09-28T05:34:02.275Z,188
2016-09-28T05:35:02.762Z,174
2016-09-28T05:36:03.424Z,174
2016-09-28T05:37:03.794Z,174
2016-09-28T05:38:04.307Z,174
2016-09-28T05:39:04.835Z,174
2016-09-28T05:40:05.329Z,174
2016-09-28T05:41:05.840Z,174
2016-09-28T05:42:06.347Z,174
2016-09-28T05:43:07.013Z,174
2016-09-28T05:44:07.392Z,174
2016-09-28T05:45:07.889Z,173
2016-09-28T05:46:08.401Z,173
2016-09-28T05:47:08.913Z,173
2016-09-28T05:48:09.425Z,173
2016-09-28T05:49:10.087Z,173
2016-09-28T05:50:10.448Z,173
2016-09-28T05:51:10.960Z,173
2016-09-28T05:52:11.618Z,173
2016-09-28T05:53:11.982Z,173
2016-09-28T05:54:12.497Z,173
2016-09-28T05:55:13.005Z,176
2016-09-28T05:56:13.670Z,176
2016-09-28T05:57:14.183Z,176
2016-09-28T05:58:14.546Z,176
2016-09-28T05:59:15.065Z,176
2016-09-28T06:00:15.582Z,176
2016-09-28T06:01:16.098Z,176
2016-09-28T06:02:16.918Z,176
2016-09-28T06:03:17.269Z,176
2016-09-28T06:04:17.626Z,176
2016-09-28T06:05:18.138Z,171
2016-09-28T06:06:18.665Z,171
2016-09-28T06:07:19.313Z,171
2016-09-28T06:08:19.673Z,171
2016-09-28T06:09:20.179Z,171
2016-09-28T06:10:20.704Z,171
2016-09-28T06:11:21.500Z,171
2016-09-28T06:12:21.713Z,171
2016-09-28T06:13:22.223Z,171
2016-09-28T06:14:22.734Z,171
2016-09-28T06:15:23.257Z,98
2016-09-28T06:16:23.764Z,98
2016-09-28T06:17:24.272Z,98
2016-09-28T06:18:24.931Z,98
2016-09-28T06:19:25.298Z,98
2016-09-28T06:20:25.807Z,98
2016-09-28T06:21:26.323Z,98
2016-09-28T06:22:26.985Z,98
2016-09-28T06:23:27.498Z,98
2016-09-28T06:24:27.863Z,98
2016-09-28T06:25:28.370Z,112
2016-09-28T06:26:28.880Z,112
2016-09-28T06:27:29.539Z,112
2016-09-28T06:28:30.065Z,112
2016-09-28T06:29:30.411Z,112
2016-09-28T06:30:30.937Z,112
2016-09-28T06:31:31.435Z,112
2016-09-28T06:32:33.897Z,112
2016-09-28T06:33:32.477Z,112
2016-09-28T06:34:32.968Z,112
2016-09-28T06:35:33.484Z,152
2016-09-28T06:36:34.028Z,152
2016-09-28T06:37:34.669Z,152
2016-09-28T06:38:35.035Z,152
2016-09-28T06:39:35.551Z,152
2016-09-28T06:40:36.065Z,152
2016-09-28T06:41:36.581Z,152
2016-09-28T06:42:37.101Z,152
2016-09-28T06:43:37.600Z,152
2016-09-28T06:44:38.114Z,152
2016-09-28T06:45:38.629Z,169
2016-09-28T06:46:39.283Z,169
2016-09-28T06:47:39.650Z,169
2016-09-28T06:48:40.157Z,169
2016-09-28T06:49:40.677Z,169
2016-09-28T06:50:41.338Z,169
2016-09-28T06:51:41.692Z,169
2016-09-28T06:52:42.204Z,169
2016-09-28T06:53:42.721Z,169
2016-09-28T06:54:43.226Z,169
2016-09-28T06:55:43.888Z,152
2016-09-28T06:56:44.251Z,152
2016-09-28T06:57:44.765Z,152
2016-09-28T06:58:45.278Z,152
2016-09-28T06:59:45.941Z,152
2016-09-28T07:00:46.302Z,152
2016-09-28T07:01:46.813Z,152
2016-09-28T07:02:48.524Z,152
2016-09-28T07:03:47.984Z,152
2016-09-28T07:04:48.498Z,152
2016-09-28T07:05:49.015Z,121
2016-09-28T07:06:49.379Z,121
2016-09-28T07:07:49.888Z,121
2016-09-28T07:08:50.403Z,121
2016-09-28T07:09:50.912Z,121
2016-09-28T07:10:51.437Z,121
2016-09-28T07:11:51.943Z,121
2016-09-28T07:12:52.461Z,121
2016-09-28T07:13:52.978Z,121
2016-09-28T07:14:53.650Z,121
2016-09-28T07:15:54.009Z,153
2016-09-28T07:16:54.529Z,153
2016-09-28T07:17:55.042Z,153
2016-09-28T07:18:55.552Z,153
2016-09-28T07:19:56.221Z,153
2016-09-28T07:20:56.572Z,153
2016-09-28T07:21:57.088Z,153
2016-09-28T07:22:57.600Z,153
2016-09-28T07:23:58.107Z,153
2016-09-28T07:24:58.769Z,153
2016-09-28T07:25:59.132Z,151
2016-09-28T07:26:59.649Z,151
2016-09-28T07:28:00.149Z,151
2016-09-28T07:29:00.675Z,151
2016-09-28T07:30:01.329Z,151
2016-09-28T07:31:01.694Z,151
2016-09-28T07:32:02.199Z,151
2016-09-28T07:33:02.711Z,151
2016-09-28T07:34:03.399Z,151
2016-09-28T07:35:03.881Z,127
2016-09-28T07:36:04.243Z,127
2016-09-28T07:37:04.761Z,127
2016-09-28T07:38:05.268Z,127
2016-09-28T07:39:05.786Z,127
2016-09-28T07:40:06.292Z,127
2016-09-28T07:41:06.806Z,127
2016-09-28T07:42:07.466Z,127
2016-09-28T07:43:07.975Z,127
2016-09-28T07:44:08.366Z,127
2016-09-28T07:45:09.005Z,123
2016-09-28T07:46:09.361Z,123
2016-09-28T07:47:09.874Z,123
2016-09-28T07:48:10.385Z,123
2016-09-28T07:49:11.054Z,123
2016-09-28T07:50:11.414Z,123
2016-09-28T07:51:12.081Z,123
2016-09-28T07:52:12.446Z,123
2016-09-28T07:53:12.962Z,123
2016-09-28T07:54:13.475Z,123
2016-09-28T07:55:13.983Z,160
2016-09-28T07:56:14.501Z,160
2016-09-28T07:57:15.010Z,160
2016-09-28T07:58:15.533Z,160
2016-09-28T07:59:16.041Z,160
2016-09-28T08:00:16.555Z,160
2016-09-28T08:01:17.071Z,160
2016-09-28T08:02:17.586Z,160
2016-09-28T08:03:18.094Z,160
2016-09-28T08:04:18.760Z,160
2016-09-28T08:05:19.268Z,135
2016-09-28T08:06:19.635Z,135
2016-09-28T08:07:20.151Z,135
2016-09-28T08:08:22.458Z,135
2016-09-28T08:09:21.320Z,135
2016-09-28T08:10:21.832Z,135
2016-09-28T08:11:22.339Z,135
2016-09-28T08:12:22.709Z,135
2016-09-28T08:13:23.212Z,135
2016-09-28T08:14:23.722Z,135
2016-09-28T08:15:24.233Z,143
2016-09-28T08:16:24.747Z,143
2016-09-28T08:17:25.257Z,143
2016-09-28T08:18:25.920Z,143
2016-09-28T08:19:26.282Z,143
2016-09-28T08:20:26.946Z,143
2016-09-28T08:21:27.457Z,143
2016-09-28T08:22:27.821Z,143
2016-09-28T08:23:28.342Z,143
2016-09-28T08:24:29.004Z,143
2016-09-28T08:25:29.515Z,158
2016-09-28T08:26:30.038Z,158
2016-09-28T08:27:30.427Z,158
2016-09-28T08:28:30.930Z,158
2016-09-28T08:29:31.441Z,158
2016-09-28T08:30:32.102Z,158
2016-09-28T08:31:32.473Z,158
2016-09-28T08:32:32.995Z,158
2016-09-28T08:33:33.497Z,158
2016-09-28T08:34:34.025Z,158
2016-09-28T08:35:34.538Z,165
2016-09-28T08:36:35.038Z,165
2016-09-28T08:37:35.698Z,165
2016-09-28T08:38:36.212Z,165
2016-09-28T08:39:36.571Z,165
2016-09-28T08:40:37.085Z,165
2016-09-28T08:41:37.744Z,165
2016-09-28T08:42:38.122Z,165
2016-09-28T08:43:38.791Z,165
2016-09-28T08:44:39.150Z,165
2016-09-28T08:45:39.649Z,171
2016-09-28T08:46:40.159Z,171
2016-09-28T08:47:40.668Z,171
2016-09-28T08:48:41.215Z,171
2016-09-28T08:49:41.759Z,171
2016-09-28T08:50:42.203Z,171
2016-09-28T08:51:42.719Z,171
2016-09-28T08:52:43.234Z,171
2016-09-28T08:53:43.894Z,171
2016-09-28T08:54:44.258Z,171
2016-09-28T08:55:44.768Z,175
2016-09-28T08:56:45.280Z,175
2016-09-28T08:57:45.793Z,175
2016-09-28T08:58:46.302Z,175
2016-09-28T08:59:46.965Z,175
2016-09-28T09:00:47.326Z,175
2016-09-28T09:01:47.846Z,175
2016-09-28T09:02:48.348Z,175
2016-09-28T09:03:48.863Z,175
2016-09-28T09:04:49.381Z,175
2016-09-28T09:05:49.900Z,169
2016-09-28T09:06:50.414Z,169
2016-09-28T09:07:50.931Z,169
2016-09-28T09:08:51.441Z,169
2016-09-28T09:09:52.110Z,169
2016-09-28T09:10:52.470Z,169
2016-09-28T09:11:52.978Z,169
2016-09-28T09:12:53.490Z,169
2016-09-28T09:13:54.016Z,169
2016-09-28T09:14:54.513Z,169
2016-09-28T09:15:55.034Z,163
2016-09-28T09:16:55.537Z,163
2016-09-28T09:17:56.211Z,163
2016-09-28T09:19:48.373Z,163
2016-09-28T09:20:57.610Z,163
2016-09-28T09:21:58.106Z,163
2016-09-28T09:22:58.621Z,163
2016-09-28T09:23:59.137Z,163
2016-09-28T09:24:59.648Z,163
2016-09-28T09:26:00.163Z,162
2016-09-28T09:27:00.818Z,162
2016-09-28T09:28:01.330Z,162
2016-09-28T09:29:01.698Z,162
2016-09-28T09:30:02.206Z,162
2016-09-28T09:31:02.711Z,162
2016-09-28T09:32:03.229Z,162
2016-09-28T09:33:03.781Z,162
2016-09-28T09:34:04.248Z,162
2016-09-28T09:35:04.761Z,181
2016-09-28T09:36:05.292Z,181
2016-09-28T09:37:05.781Z,181
2016-09-28T09:38:06.291Z,181
2016-09-28T09:39:06.803Z,181
2016-09-28T09:40:07.319Z,181
2016-09-28T09:41:07.828Z,181
2016-09-28T09:42:08.486Z,181
2016-09-28T09:43:09.010Z,181
2016-09-28T09:44:09.375Z,181
2016-09-28T09:45:09.893Z,177
2016-09-28T09:46:10.562Z,177
2016-09-28T09:47:10.930Z,177
2016-09-28T09:48:11.744Z,177
2016-09-28T09:49:11.951Z,177
2016-09-28T09:50:12.466Z,177
2016-09-28T09:51:12.980Z,177
2016-09-28T09:52:13.499Z,177
2016-09-28T09:53:14.004Z,177
2016-09-28T09:54:14.663Z,177
2016-09-28T09:55:15.031Z,196
2016-09-28T09:56:15.536Z,196
2016-09-28T09:57:16.047Z,196
2016-09-28T09:58:16.555Z,196
2016-09-28T09:59:17.221Z,196
2016-09-28T10:00:17.585Z,196
2016-09-28T10:01:18.099Z,196
2016-09-28T10:02:18.608Z,196
2016-09-28T10:03:19.273Z,196
2016-09-28T10:04:19.633Z,196
2016-09-28T10:05:20.169Z,190
2016-09-28T10:06:20.668Z,190
2016-09-28T10:07:21.183Z,190
2016-09-28T10:08:21.687Z,190
2016-09-28T10:09:22.208Z,190
2016-09-28T10:10:22.713Z,190
2016-09-28T10:11:23.232Z,190
2016-09-28T10:12:23.739Z,190
2016-09-28T10:13:24.266Z,190
2016-09-28T10:14:25.665Z,190
2016-09-28T10:15:25.281Z,215
2016-09-28T10:16:25.962Z,215
2016-09-28T10:17:26.300Z,215
2016-09-28T10:18:26.841Z,215
2016-09-28T10:19:27.484Z,215
2016-09-28T10:20:27.853Z,215
2016-09-28T10:21:28.361Z,215
2016-09-28T10:22:28.881Z,215
2016-09-28T10:23:29.396Z,215
2016-09-28T10:24:30.059Z,215
2016-09-28T10:25:30.450Z,204
2016-09-28T10:26:30.933Z,204
2016-09-28T10:27:31.444Z,204
2016-09-28T10:28:31.961Z,204
2016-09-28T10:29:32.470Z,204
2016-09-28T10:30:32.989Z,204
2016-09-28T10:31:33.497Z,204
2016-09-28T10:32:35.057Z,204
2016-09-28T10:33:34.664Z,204
2016-09-28T10:34:35.025Z,204
2016-09-28T10:35:35.532Z,246
2016-09-28T10:36:36.065Z,246
2016-09-28T10:37:36.554Z,246
2016-09-28T10:38:37.068Z,246
2016-09-28T10:39:37.580Z,246
2016-09-28T10:40:38.093Z,246
2016-09-28T10:41:38.599Z,246
2016-09-28T10:42:39.111Z,246
2016-09-28T10:43:39.621Z,246
2016-09-28T10:44:40.132Z,246
2016-09-28T10:45:40.670Z,231
2016-09-28T10:46:41.173Z,231
2016-09-28T10:47:41.664Z,231
2016-09-28T10:48:42.183Z,231
2016-09-28T10:49:42.685Z,231
2016-09-28T10:50:43.200Z,231
2016-09-28T10:51:44.009Z,231
2016-09-28T10:52:44.220Z,231
2016-09-28T10:53:44.744Z,231
2016-09-28T10:54:45.247Z,231
2016-09-28T10:55:45.781Z,236
2016-09-28T10:56:46.271Z,236
2016-09-28T10:57:46.937Z,236
2016-09-28T10:58:47.301Z,236
2016-09-28T10:59:47.820Z,236
2016-09-28T11:00:48.334Z,236
2016-09-28T11:01:48.843Z,236
2016-09-28T11:02:49.351Z,236
2016-09-28T11:03:49.866Z,236
2016-09-28T11:04:50.376Z,236
2016-09-28T11:05:50.888Z,265
2016-09-28T11:06:51.562Z,265
2016-09-28T11:07:52.062Z,265
2016-09-28T11:08:52.422Z,265
2016-09-28T11:09:52.938Z,265
2016-09-28T11:10:53.446Z,265
2016-09-28T11:11:54.113Z,265
2016-09-28T11:12:54.477Z,265
2016-09-28T11:13:55.019Z,265
2016-09-28T11:14:55.498Z,265
2016-09-28T11:15:56.012Z,265
2016-09-28T11:16:56.667Z,265
2016-09-28T11:17:57.030Z,265
2016-09-28T11:18:57.539Z,265
2016-09-28T11:19:59.554Z,265
2016-09-28T11:20:58.562Z,265
2016-09-28T11:21:59.075Z,265
2016-09-28T11:22:59.589Z,265
2016-09-28T11:24:00.103Z,265
2016-09-28T11:25:00.613Z,240
2016-09-28T11:26:01.122Z,240
2016-09-28T11:27:01.631Z,240
2016-09-28T11:28:02.145Z,240
2016-09-28T11:29:02.655Z,240
2016-09-28T11:30:03.316Z,240
2016-09-28T11:31:03.679Z,240
2016-09-28T11:32:04.194Z,240
2016-09-28T11:33:04.715Z,240
2016-09-28T11:34:05.246Z,240
2016-09-28T11:35:05.745Z,247
2016-09-28T11:36:06.416Z,247
2016-09-28T11:37:06.778Z,247
2016-09-28T11:38:07.293Z,247
2016-09-28T11:39:07.814Z,247
2016-09-28T11:40:08.326Z,247
2016-09-28T11:41:08.833Z,247
2016-09-28T11:42:09.350Z,247
2016-09-28T11:43:09.882Z,247
2016-09-28T11:44:10.364Z,247
2016-09-28T11:45:11.179Z,269
2016-09-28T11:46:11.539Z,269
2016-09-28T11:47:11.900Z,269
2016-09-28T11:48:12.413Z,269
2016-09-28T11:49:12.929Z,269
2016-09-28T11:50:14.792Z,269
2016-09-28T11:51:14.101Z,269
2016-09-28T11:52:14.630Z,269
2016-09-28T11:53:14.986Z,269
2016-09-28T11:54:15.502Z,269
2016-09-28T11:55:16.011Z,248
2016-09-28T11:56:16.522Z,248
2016-09-28T11:57:17.040Z,248
2016-09-28T11:58:17.555Z,248
2016-09-28T11:59:18.064Z,248
2016-09-28T12:00:18.586Z,248
2016-09-28T12:01:19.256Z,248
2016-09-28T12:02:19.602Z,248
2016-09-28T12:03:20.120Z,248
2016-09-28T12:04:20.630Z,248
2016-09-28T12:05:21.137Z,209
2016-09-28T12:06:21.653Z,209
2016-09-28T12:07:22.163Z,209
2016-09-28T12:08:22.670Z,209
2016-09-28T12:09:23.184Z,209
2016-09-28T12:10:23.714Z,209
2016-09-28T12:11:24.364Z,209
2016-09-28T12:12:24.727Z,209
2016-09-28T12:13:25.396Z,209
2016-09-28T12:14:25.917Z,209
2016-09-28T12:15:26.277Z,222
2016-09-28T12:16:26.786Z,222
2016-09-28T12:17:27.301Z,222
2016-09-28T12:18:27.812Z,222
2016-09-28T12:19:28.485Z,222
2016-09-28T12:20:28.840Z,222
2016-09-28T12:21:29.344Z,222
2016-09-28T12:22:30.002Z,222
2016-09-28T12:23:30.363Z,222
2016-09-28T12:24:30.874Z,222
2016-09-28T12:25:31.419Z,220
2016-09-28T12:26:32.041Z,220
2016-09-28T12:27:32.432Z,220
2016-09-28T12:28:33.061Z,220
2016-09-28T12:29:33.428Z,220
2016-09-28T12:30:34.111Z,220
2016-09-28T12:31:34.443Z,220
2016-09-28T12:32:34.957Z,220
2016-09-28T12:33:35.467Z,220
2016-09-28T12:34:35.985Z,220
2016-09-28T12:35:36.654Z,210
2016-09-28T12:36:37.014Z,210
2016-09-28T12:37:37.521Z,210
2016-09-28T12:38:38.031Z,210
2016-09-28T12:39:38.700Z,210
2016-09-28T12:40:39.057Z,210
2016-09-28T12:41:39.574Z,210
2016-09-28T12:42:40.086Z,210
2016-09-28T12:43:40.742Z,210
2016-09-28T12:44:41.111Z,210
2016-09-28T12:45:41.615Z,215
2016-09-28T12:46:42.135Z,215
2016-09-28T12:47:42.645Z,215
2016-09-28T12:48:43.151Z,215
2016-09-28T12:49:43.681Z,215
2016-09-28T12:50:44.185Z,215
2016-09-28T12:51:44.705Z,215
2016-09-28T12:52:45.216Z,215
2016-09-28T12:53:45.732Z,215
2016-09-28T12:54:46.391Z,215
2016-09-28T12:55:46.755Z,210
2016-09-28T12:56:47.263Z,210
2016-09-28T12:57:47.776Z,210
2016-09-28T12:58:48.290Z,210
2016-09-28T12:59:48.800Z,210
2016-09-28T13:00:49.464Z,210
2016-09-28T13:01:49.975Z,210
2016-09-28T13:02:50.333Z,210
2016-09-28T13:03:50.847Z,210
2016-09-28T13:04:51.355Z,210
2016-09-28T13:05:51.872Z,237
2016-09-28T13:06:52.381Z,237
2016-09-28T13:07:52.898Z,237
2016-09-28T13:08:53.409Z,237
2016-09-28T13:09:54.067Z,237
2016-09-28T13:10:54.446Z,237
2016-09-28T13:11:54.943Z,237
2016-09-28T13:12:55.456Z,237
2016-09-28T13:13:56.116Z,237
2016-09-28T13:14:56.478Z,237
2016-09-28T13:15:56.989Z,232
2016-09-28T13:16:57.503Z,232
2016-09-28T13:17:58.008Z,232
2016-09-28T13:18:58.673Z,232
2016-09-28T13:19:59.032Z,232
2016-09-28T13:20:59.545Z,232
2016-09-28T13:22:00.061Z,232
2016-09-28T13:23:00.568Z,232
2016-09-28T13:24:01.245Z,232
2016-09-28T13:25:01.594Z,223
2016-09-28T13:26:02.106Z,223
2016-09-28T13:27:02.626Z,223
2016-09-28T13:28:03.142Z,223
2016-09-28T13:29:03.804Z,223
2016-09-28T13:30:04.319Z,223
2016-09-28T13:31:04.682Z,223
2016-09-28T13:32:05.192Z,223
2016-09-28T13:33:05.704Z,223
2016-09-28T13:34:06.223Z,223
2016-09-28T13:35:06.732Z,221
2016-09-28T13:36:07.251Z,221
2016-09-28T13:37:07.763Z,221
2016-09-28T13:38:08.308Z,221
2016-09-28T13:39:08.791Z,221
2016-09-28T13:40:09.309Z,221
2016-09-28T13:41:09.815Z,221
2016-09-28T13:42:10.327Z,221
2016-09-28T13:43:10.842Z,221
2016-09-28T13:44:12.734Z,221
2016-09-28T13:45:11.872Z,210
2016-09-28T13:46:12.377Z,210
2016-09-28T13:47:12.885Z,210
2016-09-28T13:48:13.409Z,210
2016-09-28T13:49:13.913Z,210
2016-09-28T13:50:14.453Z,210
2016-09-28T13:51:14.936Z,210
2016-09-28T13:52:15.444Z,210
2016-09-28T13:53:16.110Z,210
2016-09-28T13:54:16.484Z,210
2016-09-28T13:55:16.995Z,243